sensor_id;sensor_type;location;lat;lon;timestamp;pressure;altitude;pressure_sealevel;temperature;humidity
11971;BME280;6045;42.682;23.294;2023-03-22T00:01:16;94284.50;;;11.82;84.47
11971;BME280;6045;42.682;23.294;2023-03-22T00:03:44;94280.66;;;11.78;84.24
11971;BME280;6045;42.682;23.294;2023-03-22T00:06:13;94280.66;;;11.78;84.13
11971;BME280;6045;42.682;23.294;2023-03-22T00:08:40;94281.22;;;11.80;84.38
11971;BME280;6045;42.682;23.294;2023-03-22T00:11:07;94289.25;;;11.80;84.75
11971;BME280;6045;42.682;23.294;2023-03-22T00:13:35;94286.09;;;11.83;84.68
11971;BME280;6045;42.682;23.294;2023-03-22T00:16:02;94290.63;;;11.83;84.86
11971;BME280;6045;42.682;23.294;2023-03-22T00:18:29;94280.19;;;11.81;85.17
11971;BME280;6045;42.682;23.294;2023-03-22T00:20:58;94284.41;;;11.77;85.21
11971;BME280;6045;42.682;23.294;2023-03-22T00:23:27;94290.25;;;11.74;85.62
11971;BME280;6045;42.682;23.294;2023-03-22T00:25:54;94283.34;;;11.78;85.72
11971;BME280;6045;42.682;23.294;2023-03-22T00:28:21;94282.03;;;11.81;85.06
11971;BME280;6045;42.682;23.294;2023-03-22T00:30:52;94283.66;;;11.82;85.31
11971;BME280;6045;42.682;23.294;2023-03-22T00:33:19;94277.75;;;11.80;85.60
11971;BME280;6045;42.682;23.294;2023-03-22T00:35:51;94282.13;;;11.69;86.18
11971;BME280;6045;42.682;23.294;2023-03-22T00:38:18;94276.44;;;11.65;85.96
11971;BME280;6045;42.682;23.294;2023-03-22T00:40:46;94277.22;;;11.66;86.13
11971;BME280;6045;42.682;23.294;2023-03-22T00:43:13;94269.72;;;11.63;86.20
11971;BME280;6045;42.682;23.294;2023-03-22T00:45:40;94270.19;;;11.60;86.23
11971;BME280;6045;42.682;23.294;2023-03-22T00:48:07;94267.75;;;11.58;85.73
11971;BME280;6045;42.682;23.294;2023-03-22T00:50:35;94270.34;;;11.53;86.15
11971;BME280;6045;42.682;23.294;2023-03-22T00:53:01;94271.66;;;11.51;86.39
11971;BME280;6045;42.682;23.294;2023-03-22T00:55:28;94273.25;;;11.52;86.42
11971;BME280;6045;42.682;23.294;2023-03-22T00:57:57;94271.31;;;11.47;86.05
11971;BME280;6045;42.682;23.294;2023-03-22T01:00:23;94260.38;;;11.32;86.52
11971;BME280;6045;42.682;23.294;2023-03-22T01:02:50;94264.84;;;11.27;86.63
11971;BME280;6045;42.682;23.294;2023-03-22T01:05:18;94266.84;;;11.20;87.31
11971;BME280;6045;42.682;23.294;2023-03-22T01:07:46;94266.69;;;11.10;86.81
11971;BME280;6045;42.682;23.294;2023-03-22T01:10:15;94264.50;;;11.07;86.69
11971;BME280;6045;42.682;23.294;2023-03-22T01:12:42;94260.19;;;11.06;86.58
11971;BME280;6045;42.682;23.294;2023-03-22T01:15:11;94256.38;;;11.02;86.93
11971;BME280;6045;42.682;23.294;2023-03-22T01:17:38;94252.91;;;11.01;87.28
11971;BME280;6045;42.682;23.294;2023-03-22T01:20:06;94255.31;;;11.02;87.79
11971;BME280;6045;42.682;23.294;2023-03-22T01:22:33;94256.69;;;11.05;88.13
11971;BME280;6045;42.682;23.294;2023-03-22T01:25:00;94255.31;;;11.02;88.03
11971;BME280;6045;42.682;23.294;2023-03-22T01:27:27;94252.41;;;11.04;87.97
11971;BME280;6045;42.682;23.294;2023-03-22T01:29:54;94252.75;;;11.08;87.70
11971;BME280;6045;42.682;23.294;2023-03-22T01:32:23;94250.84;;;10.91;88.05
11971;BME280;6045;42.682;23.294;2023-03-22T01:34:49;94246.63;;;10.95;88.28
11971;BME280;6045;42.682;23.294;2023-03-22T01:37:16;94247.28;;;11.02;88.58
11971;BME280;6045;42.682;23.294;2023-03-22T01:39:43;94255.31;;;11.02;88.07
11971;BME280;6045;42.682;23.294;2023-03-22T01:42:12;94245.09;;;10.83;88.19
11971;BME280;6045;42.682;23.294;2023-03-22T01:44:41;94244.59;;;10.86;88.68
11971;BME280;6045;42.682;23.294;2023-03-22T01:47:08;94240.16;;;10.91;88.19
11971;BME280;6045;42.682;23.294;2023-03-22T01:49:38;94240.25;;;10.96;87.99
11971;BME280;6045;42.682;23.294;2023-03-22T01:52:09;94241.53;;;10.94;88.11
11971;BME280;6045;42.682;23.294;2023-03-22T01:54:39;94237.00;;;10.94;87.96
11971;BME280;6045;42.682;23.294;2023-03-22T01:57:09;94237.09;;;10.99;87.45
11971;BME280;6045;42.682;23.294;2023-03-22T01:59:37;94244.63;;;11.02;87.40
11971;BME280;6045;42.682;23.294;2023-03-22T02:02:04;94240.63;;;10.88;87.39
11971;BME280;6045;42.682;23.294;2023-03-22T02:04:33;94236.16;;;10.77;87.61
11971;BME280;6045;42.682;23.294;2023-03-22T02:07:05;94238.38;;;10.52;87.49
11971;BME280;6045;42.682;23.294;2023-03-22T02:09:34;94244.25;;;10.38;88.18
11971;BME280;6045;42.682;23.294;2023-03-22T02:12:08;94239.56;;;10.45;89.11
11971;BME280;6045;42.682;23.294;2023-03-22T02:14:51;94238.84;;;10.49;89.39
11971;BME280;6045;42.682;23.294;2023-03-22T02:17:30;94240.56;;;10.55;89.51
11971;BME280;6045;42.682;23.294;2023-03-22T02:20:36;94242.75;;;10.58;89.91
11971;BME280;6045;42.682;23.294;2023-03-22T02:23:45;94235.22;;;10.55;89.91
11971;BME280;6045;42.682;23.294;2023-03-22T02:26:54;94243.72;;;10.52;90.05
11971;BME280;6045;42.682;23.294;2023-03-22T02:29:34;94240.50;;;10.50;89.66
11971;BME280;6045;42.682;23.294;2023-03-22T02:32:24;94244.81;;;10.40;89.77
11971;BME280;6045;42.682;23.294;2023-03-22T02:35:32;94245.94;;;10.44;90.49
11971;BME280;6045;42.682;23.294;2023-03-22T02:41:05;94260.44;;;10.59;90.69
11971;BME280;6045;42.682;23.294;2023-03-22T02:43:37;94260.59;;;10.69;89.96
11971;BME280;6045;42.682;23.294;2023-03-22T02:46:14;94260.28;;;10.66;89.85
11971;BME280;6045;42.682;23.294;2023-03-22T02:48:51;94260.91;;;10.56;89.56
11971;BME280;6045;42.682;23.294;2023-03-22T02:51:23;94263.47;;;10.51;89.90
11971;BME280;6045;42.682;23.294;2023-03-22T02:53:53;94260.69;;;10.46;89.39
11971;BME280;6045;42.682;23.294;2023-03-22T02:56:25;94263.25;;;10.41;88.71
11971;BME280;6045;42.682;23.294;2023-03-22T02:58:56;94266.84;;;10.47;88.91
11971;BME280;6045;42.682;23.294;2023-03-22T03:01:27;94264.31;;;10.40;89.13
11971;BME280;6045;42.682;23.294;2023-03-22T03:03:56;94264.38;;;10.28;88.59
11971;BME280;6045;42.682;23.294;2023-03-22T03:06:27;94258.66;;;10.25;89.61
11971;BME280;6045;42.682;23.294;2023-03-22T03:08:56;94264.50;;;10.22;90.51
11971;BME280;6045;42.682;23.294;2023-03-22T03:11:28;94262.41;;;10.24;90.90
11971;BME280;6045;42.682;23.294;2023-03-22T03:13:55;94261.34;;;10.25;90.74
11971;BME280;6045;42.682;23.294;2023-03-22T03:16:25;94265.28;;;10.22;91.04
11971;BME280;6045;42.682;23.294;2023-03-22T03:18:57;94269.91;;;10.27;91.04
11971;BME280;6045;42.682;23.294;2023-03-22T03:21:33;94265.19;;;10.29;91.43
11971;BME280;6045;42.682;23.294;2023-03-22T03:24:11;94265.03;;;10.36;90.26
11971;BME280;6045;42.682;23.294;2023-03-22T03:26:48;94273.94;;;10.41;90.10
11971;BME280;6045;42.682;23.294;2023-03-22T03:29:21;94263.38;;;10.46;90.04
11971;BME280;6045;42.682;23.294;2023-03-22T03:31:52;94267.22;;;10.50;89.24
11971;BME280;6045;42.682;23.294;2023-03-22T03:34:25;94271.28;;;10.41;89.40
11971;BME280;6045;42.682;23.294;2023-03-22T03:36:57;94272.91;;;10.42;89.59
11971;BME280;6045;42.682;23.294;2023-03-22T03:39:27;94273.47;;;10.44;89.33
11971;BME280;6045;42.682;23.294;2023-03-22T03:41:56;94276.28;;;10.38;88.76
11971;BME280;6045;42.682;23.294;2023-03-22T03:44:24;94274.47;;;10.26;89.42
11971;BME280;6045;42.682;23.294;2023-03-22T03:46:52;94289.31;;;10.22;89.44
11971;BME280;6045;42.682;23.294;2023-03-22T03:49:21;94278.78;;;10.04;89.11
11971;BME280;6045;42.682;23.294;2023-03-22T03:51:50;94283.31;;;9.92;89.95
11971;BME280;6045;42.682;23.294;2023-03-22T03:54:18;94279.03;;;9.91;90.90
11971;BME280;6045;42.682;23.294;2023-03-22T03:56:45;94278.81;;;9.81;91.44
11971;BME280;6045;42.682;23.294;2023-03-22T03:59:14;94293.78;;;9.94;92.55
11971;BME280;6045;42.682;23.294;2023-03-22T04:01:41;94281.00;;;9.96;93.00
11971;BME280;6045;42.682;23.294;2023-03-22T04:04:15;94287.47;;;10.00;92.67
11971;BME280;6045;42.682;23.294;2023-03-22T04:06:42;94288.63;;;10.04;91.52
11971;BME280;6045;42.682;23.294;2023-03-22T04:09:09;94286.22;;;10.02;91.33
11971;BME280;6045;42.682;23.294;2023-03-22T04:11:36;94299.31;;;10.04;90.94
11971;BME280;6045;42.682;23.294;2023-03-22T04:14:03;94297.91;;;10.01;91.50
11971;BME280;6045;42.682;23.294;2023-03-22T04:16:31;94301.28;;;9.97;91.29
11971;BME280;6045;42.682;23.294;2023-03-22T04:18:58;94302.56;;;9.94;90.99
11971;BME280;6045;42.682;23.294;2023-03-22T04:21:25;94299.91;;;9.94;91.14
11971;BME280;6045;42.682;23.294;2023-03-22T04:23:51;94295.84;;;9.92;91.27
11971;BME280;6045;42.682;23.294;2023-03-22T04:26:20;94296.19;;;9.95;91.47
11971;BME280;6045;42.682;23.294;2023-03-22T04:28:46;94300.72;;;9.95;91.98
11971;BME280;6045;42.682;23.294;2023-03-22T04:31:13;94294.69;;;9.99;92.03
11971;BME280;6045;42.682;23.294;2023-03-22T04:33:41;94301.88;;;9.99;91.43
11971;BME280;6045;42.682;23.294;2023-03-22T04:36:11;94307.69;;;9.96;92.13
11971;BME280;6045;42.682;23.294;2023-03-22T04:38:40;94305.13;;;10.01;92.68
11971;BME280;6045;42.682;23.294;2023-03-22T04:41:07;94307.91;;;10.06;93.33
11971;BME280;6045;42.682;23.294;2023-03-22T04:43:34;94305.34;;;10.11;93.12
11971;BME280;6045;42.682;23.294;2023-03-22T04:46:04;94309.09;;;10.21;93.10
11971;BME280;6045;42.682;23.294;2023-03-22T04:48:34;94307.22;;;10.22;92.92
11971;BME280;6045;42.682;23.294;2023-03-22T04:51:04;94309.88;;;10.34;92.97
11971;BME280;6045;42.682;23.294;2023-03-22T04:53:31;94317.63;;;11.48;100.00
11971;BME280;6045;42.682;23.294;2023-03-22T04:55:58;94312.03;;;12.38;100.00
11971;BME280;6045;42.682;23.294;2023-03-22T04:58:25;94315.06;;;12.41;100.00
11971;BME280;6045;42.682;23.294;2023-03-22T05:00:52;94325.41;;;12.76;100.00
11971;BME280;6045;42.682;23.294;2023-03-22T05:03:20;94320.88;;;13.03;100.00
11971;BME280;6045;42.682;23.294;2023-03-22T05:05:50;94325.00;;;13.11;93.78
11971;BME280;6045;42.682;23.294;2023-03-22T05:08:20;94324.47;;;13.35;88.56
11971;BME280;6045;42.682;23.294;2023-03-22T05:10:49;94325.28;;;13.09;79.39
11971;BME280;6045;42.682;23.294;2023-03-22T05:13:16;94328.00;;;13.14;87.11
11971;BME280;6045;42.682;23.294;2023-03-22T05:15:43;94324.88;;;13.22;85.08
11971;BME280;6045;42.682;23.294;2023-03-22T05:18:11;94331.50;;;12.93;82.76
11971;BME280;6045;42.682;23.294;2023-03-22T05:20:42;94329.81;;;12.65;79.91
11971;BME280;6045;42.682;23.294;2023-03-22T05:23:09;94343.28;;;12.49;79.30
11971;BME280;6045;42.682;23.294;2023-03-22T05:25:37;94343.25;;;12.27;81.83
11971;BME280;6045;42.682;23.294;2023-03-22T05:28:04;94348.13;;;12.13;84.37
11971;BME280;6045;42.682;23.294;2023-03-22T05:30:32;94346.84;;;11.99;84.26
11971;BME280;6045;42.682;23.294;2023-03-22T05:33:00;94354.34;;;11.81;83.59
11971;BME280;6045;42.682;23.294;2023-03-22T05:35:28;94354.34;;;11.81;84.52
11971;BME280;6045;42.682;23.294;2023-03-22T05:37:56;94344.03;;;11.89;86.92
11971;BME280;6045;42.682;23.294;2023-03-22T05:40:23;94355.16;;;11.98;87.63
11971;BME280;6045;42.682;23.294;2023-03-22T05:42:52;94345.38;;;12.08;86.03
11971;BME280;6045;42.682;23.294;2023-03-22T05:45:20;94344.59;;;12.08;85.61
11971;BME280;6045;42.682;23.294;2023-03-22T05:47:47;94346.19;;;12.09;86.87
11971;BME280;6045;42.682;23.294;2023-03-22T05:50:17;94354.97;;;12.04;80.91
11971;BME280;6045;42.682;23.294;2023-03-22T05:52:46;94354.03;;;11.94;85.32
11971;BME280;6045;42.682;23.294;2023-03-22T05:55:14;94358.56;;;11.93;82.13
11971;BME280;6045;42.682;23.294;2023-03-22T05:57:42;94361.97;;;11.89;82.74
11971;BME280;6045;42.682;23.294;2023-03-22T06:00:13;94362.28;;;11.76;85.16
11971;BME280;6045;42.682;23.294;2023-03-22T06:02:41;94364.81;;;11.82;85.92
11971;BME280;6045;42.682;23.294;2023-03-22T06:05:09;94370.47;;;11.86;84.07
11971;BME280;6045;42.682;23.294;2023-03-22T06:07:36;94375.09;;;11.74;82.44
11971;BME280;6045;42.682;23.294;2023-03-22T06:10:04;94373.00;;;11.76;84.93
11971;BME280;6045;42.682;23.294;2023-03-22T06:12:31;94377.00;;;11.61;83.48
11971;BME280;6045;42.682;23.294;2023-03-22T06:14:58;94372.78;;;11.49;84.10
11971;BME280;6045;42.682;23.294;2023-03-22T06:17:26;94372.13;;;11.42;83.95
11971;BME280;6045;42.682;23.294;2023-03-22T06:19:53;94373.72;;;11.43;84.21
11971;BME280;6045;42.682;23.294;2023-03-22T06:22:20;94381.66;;;11.38;84.41
11971;BME280;6045;42.682;23.294;2023-03-22T06:24:48;94381.28;;;11.46;83.63
11971;BME280;6045;42.682;23.294;2023-03-22T06:27:16;94376.03;;;11.51;82.27
11971;BME280;6045;42.682;23.294;2023-03-22T06:29:43;94371.81;;;11.55;82.10
11971;BME280;6045;42.682;23.294;2023-03-22T06:32:14;94377.72;;;11.57;82.76
11971;BME280;6045;42.682;23.294;2023-03-22T06:34:42;94379.84;;;11.55;84.12
11971;BME280;6045;42.682;23.294;2023-03-22T06:37:09;94383.81;;;11.52;84.73
11971;BME280;6045;42.682;23.294;2023-03-22T06:39:35;94394.75;;;11.51;84.33
11971;BME280;6045;42.682;23.294;2023-03-22T06:42:02;94394.75;;;11.51;84.74
11971;BME280;6045;42.682;23.294;2023-03-22T06:44:29;94389.34;;;11.62;84.06
11971;BME280;6045;42.682;23.294;2023-03-22T06:46:55;94388.06;;;11.65;83.70
11971;BME280;6045;42.682;23.294;2023-03-22T06:49:22;94387.66;;;11.73;83.28
11971;BME280;6045;42.682;23.294;2023-03-22T06:51:52;94393.03;;;11.73;83.70
11971;BME280;6045;42.682;23.294;2023-03-22T06:54:20;94394.44;;;11.64;83.91
11971;BME280;6045;42.682;23.294;2023-03-22T06:56:46;94396.09;;;11.65;83.75
11971;BME280;6045;42.682;23.294;2023-03-22T06:59:13;94396.66;;;11.67;84.20
11971;BME280;6045;42.682;23.294;2023-03-22T07:01:40;94401.06;;;11.73;83.71
11971;BME280;6045;42.682;23.294;2023-03-22T07:04:07;94405.63;;;11.73;82.80
11971;BME280;6045;42.682;23.294;2023-03-22T07:06:33;94411.72;;;11.56;81.31
11971;BME280;6045;42.682;23.294;2023-03-22T07:09:02;94412.06;;;11.60;81.78
11971;BME280;6045;42.682;23.294;2023-03-22T07:11:28;94407.69;;;11.71;82.02
11971;BME280;6045;42.682;23.294;2023-03-22T07:13:55;94419.09;;;11.66;82.16
11971;BME280;6045;42.682;23.294;2023-03-22T07:16:22;94412.97;;;11.65;82.40
11971;BME280;6045;42.682;23.294;2023-03-22T07:18:49;94420.25;;;11.98;88.02
11971;BME280;6045;42.682;23.294;2023-03-22T07:21:15;94409.81;;;13.12;94.68
11971;BME280;6045;42.682;23.294;2023-03-22T07:23:42;94417.94;;;13.97;89.69
11971;BME280;6045;42.682;23.294;2023-03-22T07:26:11;94423.44;;;14.80;84.48
11971;BME280;6045;42.682;23.294;2023-03-22T07:28:38;94429.97;;;15.46;81.02
11971;BME280;6045;42.682;23.294;2023-03-22T07:31:07;94423.38;;;16.09;76.52
11971;BME280;6045;42.682;23.294;2023-03-22T07:33:36;94430.44;;;16.56;73.64
11971;BME280;6045;42.682;23.294;2023-03-22T07:36:03;94430.91;;;16.93;71.56
11971;BME280;6045;42.682;23.294;2023-03-22T07:38:30;94432.19;;;17.21;70.38
11971;BME280;6045;42.682;23.294;2023-03-22T07:40:57;94436.66;;;17.45;67.75
11971;BME280;6045;42.682;23.294;2023-03-22T07:43:25;94437.88;;;17.14;63.82
11971;BME280;6045;42.682;23.294;2023-03-22T07:45:52;94440.94;;;16.52;63.37
11971;BME280;6045;42.682;23.294;2023-03-22T07:48:20;94438.41;;;15.75;63.17
11971;BME280;6045;42.682;23.294;2023-03-22T07:50:47;94447.59;;;14.70;65.79
11971;BME280;6045;42.682;23.294;2023-03-22T07:53:14;94443.50;;;13.99;68.02
11971;BME280;6045;42.682;23.294;2023-03-22T07:55:40;94447.06;;;13.51;70.15
11971;BME280;6045;42.682;23.294;2023-03-22T07:58:07;94450.19;;;13.22;72.14
11971;BME280;6045;42.682;23.294;2023-03-22T08:00:36;94450.81;;;13.07;75.00
11971;BME280;6045;42.682;23.294;2023-03-22T08:03:03;94446.94;;;12.81;74.40
11971;BME280;6045;42.682;23.294;2023-03-22T08:05:30;94446.84;;;12.55;75.41
11971;BME280;6045;42.682;23.294;2023-03-22T08:07:56;94448.16;;;12.35;76.07
11971;BME280;6045;42.682;23.294;2023-03-22T08:10:23;94445.56;;;12.07;75.66
11971;BME280;6045;42.682;23.294;2023-03-22T08:12:50;94448.31;;;11.79;76.80
11971;BME280;6045;42.682;23.294;2023-03-22T08:15:17;94442.75;;;11.69;78.83
11971;BME280;6045;42.682;23.294;2023-03-22T08:17:45;94447.31;;;11.57;78.89
11971;BME280;6045;42.682;23.294;2023-03-22T08:20:14;94447.72;;;11.49;81.06
11971;BME280;6045;42.682;23.294;2023-03-22T08:22:43;94454.53;;;11.56;82.16
11971;BME280;6045;42.682;23.294;2023-03-22T08:25:10;94449.53;;;11.60;82.60
11971;BME280;6045;42.682;23.294;2023-03-22T08:27:37;94457.09;;;11.63;82.29
11971;BME280;6045;42.682;23.294;2023-03-22T08:30:05;94455.34;;;11.57;82.14
11971;BME280;6045;42.682;23.294;2023-03-22T08:32:32;94461.53;;;11.57;82.98
11971;BME280;6045;42.682;23.294;2023-03-22T08:35:00;94460.47;;;11.58;83.95
11971;BME280;6045;42.682;23.294;2023-03-22T08:37:27;94459.97;;;11.61;84.54
11971;BME280;6045;42.682;23.294;2023-03-22T08:39:54;94457.66;;;11.65;85.04
11971;BME280;6045;42.682;23.294;2023-03-22T08:42:20;94460.47;;;11.70;85.53
11971;BME280;6045;42.682;23.294;2023-03-22T08:44:47;94468.38;;;11.93;90.73
11971;BME280;6045;42.682;23.294;2023-03-22T08:47:16;94468.44;;;11.98;89.14
11971;BME280;6045;42.682;23.294;2023-03-22T08:49:43;94467.72;;;12.03;86.84
11971;BME280;6045;42.682;23.294;2023-03-22T08:52:11;94461.63;;;12.07;86.33
11971;BME280;6045;42.682;23.294;2023-03-22T08:54:38;94466.44;;;12.05;85.94
11971;BME280;6045;42.682;23.294;2023-03-22T08:57:04;94473.47;;;12.11;85.36
11971;BME280;6045;42.682;23.294;2023-03-22T08:59:33;94471.50;;;11.90;85.01
11971;BME280;6045;42.682;23.294;2023-03-22T09:02:00;94473.28;;;11.85;84.89
11971;BME280;6045;42.682;23.294;2023-03-22T09:04:27;94472.97;;;11.81;84.48
11971;BME280;6045;42.682;23.294;2023-03-22T09:06:53;94479.75;;;11.72;85.15
11971;BME280;6045;42.682;23.294;2023-03-22T09:09:22;94480.59;;;11.73;84.68
11971;BME280;6045;42.682;23.294;2023-03-22T09:11:48;94478.41;;;11.58;84.03
11971;BME280;6045;42.682;23.294;2023-03-22T09:14:15;94485.91;;;11.44;84.93
11971;BME280;6045;42.682;23.294;2023-03-22T09:16:42;94483.50;;;11.59;86.32
11971;BME280;6045;42.682;23.294;2023-03-22T09:19:09;94480.00;;;11.71;86.07
11971;BME280;6045;42.682;23.294;2023-03-22T09:21:36;94484.06;;;11.73;86.48
11971;BME280;6045;42.682;23.294;2023-03-22T09:24:03;94490.47;;;11.72;87.13
11971;BME280;6045;42.682;23.294;2023-03-22T09:26:32;94486.16;;;11.71;86.99
11971;BME280;6045;42.682;23.294;2023-03-22T09:28:59;94484.56;;;11.70;87.52
11971;BME280;6045;42.682;23.294;2023-03-22T09:31:25;94484.31;;;11.72;87.76
11971;BME280;6045;42.682;23.294;2023-03-22T09:33:52;94487.53;;;11.74;87.38
11971;BME280;6045;42.682;23.294;2023-03-22T09:36:19;94486.09;;;11.83;86.92
11971;BME280;6045;42.682;23.294;2023-03-22T09:38:46;94479.34;;;11.80;86.56
11971;BME280;6045;42.682;23.294;2023-03-22T09:41:16;94480.75;;;11.83;86.11
11971;BME280;6045;42.682;23.294;2023-03-22T09:43:49;94473.44;;;11.78;86.41
11971;BME280;6045;42.682;23.294;2023-03-22T09:46:20;94479.75;;;11.72;86.53
11971;BME280;6045;42.682;23.294;2023-03-22T09:48:49;94482.53;;;11.77;86.25
11971;BME280;6045;42.682;23.294;2023-03-22T09:51:25;94484.41;;;11.77;86.43
11971;BME280;6045;42.682;23.294;2023-03-22T09:53:54;94478.88;;;11.83;86.62
11971;BME280;6045;42.682;23.294;2023-03-22T09:56:22;94487.13;;;11.93;86.23
11971;BME280;6045;42.682;23.294;2023-03-22T09:58:56;94471.34;;;11.97;85.89
11971;BME280;6045;42.682;23.294;2023-03-22T10:01:29;94484.63;;;12.03;86.95
11971;BME280;6045;42.682;23.294;2023-03-22T10:07:15;94478.69;;;12.18;85.19
11971;BME280;6045;42.682;23.294;2023-03-22T10:09:48;94478.03;;;12.27;84.47
11971;BME280;6045;42.682;23.294;2023-03-22T10:12:22;94485.03;;;12.28;83.43
11971;BME280;6045;42.682;23.294;2023-03-22T10:15:00;94490.31;;;12.23;82.35
11971;BME280;6045;42.682;23.294;2023-03-22T10:17:29;94490.66;;;12.27;82.33
11971;BME280;6045;42.682;23.294;2023-03-22T10:19:59;94497.44;;;12.34;83.08
11971;BME280;6045;42.682;23.294;2023-03-22T10:22:33;94492.00;;;12.46;83.87
11971;BME280;6045;42.682;23.294;2023-03-22T10:25:01;94499.72;;;12.43;83.99
11971;BME280;6045;42.682;23.294;2023-03-22T10:27:29;94491.34;;;12.39;84.61
11971;BME280;6045;42.682;23.294;2023-03-22T10:30:02;94493.47;;;12.37;84.27
11971;BME280;6045;42.682;23.294;2023-03-22T10:32:35;94498.75;;;12.49;84.43
11971;BME280;6045;42.682;23.294;2023-03-22T10:35:05;94502.25;;;12.49;83.58
11971;BME280;6045;42.682;23.294;2023-03-22T10:37:34;94489.41;;;12.51;83.07
11971;BME280;6045;42.682;23.294;2023-03-22T10:40:04;94495.28;;;12.48;83.45
11971;BME280;6045;42.682;23.294;2023-03-22T10:42:34;94488.94;;;12.38;82.92
11971;BME280;6045;42.682;23.294;2023-03-22T10:45:06;94497.22;;;12.36;82.96
11971;BME280;6045;42.682;23.294;2023-03-22T10:47:35;94494.28;;;12.38;83.32
11971;BME280;6045;42.682;23.294;2023-03-22T10:50:07;94490.88;;;12.42;82.54
11971;BME280;6045;42.682;23.294;2023-03-22T10:52:40;94485.59;;;12.30;82.52
11971;BME280;6045;42.682;23.294;2023-03-22T10:55:10;94493.72;;;12.35;82.85
11971;BME280;6045;42.682;23.294;2023-03-22T10:57:37;94493.06;;;12.28;82.60
11971;BME280;6045;42.682;23.294;2023-03-22T11:00:14;94492.09;;;12.34;83.26
11971;BME280;6045;42.682;23.294;2023-03-22T11:02:45;94487.78;;;12.33;81.75
11971;BME280;6045;42.682;23.294;2023-03-22T11:05:19;94483.41;;;12.27;81.24
11971;BME280;6045;42.682;23.294;2023-03-22T11:07:48;94487.06;;;12.21;80.29
11971;BME280;6045;42.682;23.294;2023-03-22T11:10:24;94490.22;;;12.18;80.27
11971;BME280;6045;42.682;23.294;2023-03-22T11:12:54;94485.19;;;12.22;80.50
11971;BME280;6045;42.682;23.294;2023-03-22T11:15:28;94486.00;;;12.22;81.29
11971;BME280;6045;42.682;23.294;2023-03-22T11:18:01;94489.75;;;12.21;81.41
11971;BME280;6045;42.682;23.294;2023-03-22T11:20:28;94487.63;;;12.23;82.19
11971;BME280;6045;42.682;23.294;2023-03-22T11:22:59;94483.00;;;12.19;82.73
11971;BME280;6045;42.682;23.294;2023-03-22T11:25:28;94477.56;;;12.30;83.66
11971;BME280;6045;42.682;23.294;2023-03-22T11:28:05;94485.19;;;12.22;83.75
11971;BME280;6045;42.682;23.294;2023-03-22T11:30:34;94476.91;;;12.23;83.03
11971;BME280;6045;42.682;23.294;2023-03-22T11:33:14;94473.00;;;12.14;83.60
11971;BME280;6045;42.682;23.294;2023-03-22T11:35:44;94478.75;;;12.06;83.67
11971;BME280;6045;42.682;23.294;2023-03-22T11:38:23;94471.38;;;12.13;84.75
11971;BME280;6045;42.682;23.294;2023-03-22T11:40:54;94476.75;;;12.30;85.46
11971;BME280;6045;42.682;23.294;2023-03-22T11:43:23;94475.53;;;12.38;84.88
11971;BME280;6045;42.682;23.294;2023-03-22T11:45:55;94475.91;;;12.29;85.55
11971;BME280;6045;42.682;23.294;2023-03-22T11:48:24;94474.31;;;12.28;85.16
11971;BME280;6045;42.682;23.294;2023-03-22T11:50:54;94474.97;;;12.19;85.02
11971;BME280;6045;42.682;23.294;2023-03-22T11:53:23;94470.06;;;12.16;85.57
11971;BME280;6045;42.682;23.294;2023-03-22T11:55:53;94475.50;;;12.04;84.77
11971;BME280;6045;42.682;23.294;2023-03-22T11:58:25;94475.94;;;11.96;84.16
11971;BME280;6045;42.682;23.294;2023-03-22T12:00:57;94479.81;;;12.05;84.56
11971;BME280;6045;42.682;23.294;2023-03-22T12:03:27;94479.56;;;12.07;84.24
11971;BME280;6045;42.682;23.294;2023-03-22T12:05:57;94474.78;;;12.09;84.95
11971;BME280;6045;42.682;23.294;2023-03-22T12:08:32;94474.78;;;12.09;83.42
11971;BME280;6045;42.682;23.294;2023-03-22T12:11:05;94483.06;;;12.07;84.06
11971;BME280;6045;42.682;23.294;2023-03-22T12:13:38;94474.69;;;12.20;83.11
11971;BME280;6045;42.682;23.294;2023-03-22T12:16:12;94473.09;;;12.19;81.23
11971;BME280;6045;42.682;23.294;2023-03-22T12:18:44;94472.59;;;12.22;82.55
11971;BME280;6045;42.682;23.294;2023-03-22T12:21:13;94472.84;;;12.38;83.48
11971;BME280;6045;42.682;23.294;2023-03-22T12:23:40;94466.28;;;12.45;80.66
11971;BME280;6045;42.682;23.294;2023-03-22T12:26:13;94473.88;;;12.36;77.64
11971;BME280;6045;42.682;23.294;2023-03-22T12:28:45;94472.38;;;12.41;78.90
11971;BME280;6045;42.682;23.294;2023-03-22T12:31:20;94467.66;;;12.31;80.65
11971;BME280;6045;42.682;23.294;2023-03-22T12:33:51;94467.81;;;12.41;80.98
11971;BME280;6045;42.682;23.294;2023-03-22T12:36:22;94464.16;;;12.30;78.86
11971;BME280;6045;42.682;23.294;2023-03-22T12:38:57;94462.78;;;12.11;77.51
11971;BME280;6045;42.682;23.294;2023-03-22T12:41:31;94464.63;;;11.94;78.59
11971;BME280;6045;42.682;23.294;2023-03-22T12:44:02;94462.44;;;11.91;79.04
11971;BME280;6045;42.682;23.294;2023-03-22T12:46:34;94454.00;;;11.99;79.82
11971;BME280;6045;42.682;23.294;2023-03-22T12:49:10;94462.78;;;12.11;77.38
11971;BME280;6045;42.682;23.294;2023-03-22T12:51:42;94462.94;;;12.21;77.47
11971;BME280;6045;42.682;23.294;2023-03-22T12:54:10;94465.16;;;12.24;76.66
11971;BME280;6045;42.682;23.294;2023-03-22T12:56:40;94466.91;;;12.35;76.41
11971;BME280;6045;42.682;23.294;2023-03-22T12:59:15;94460.44;;;12.31;75.84
11971;BME280;6045;42.682;23.294;2023-03-22T13:01:47;94464.88;;;12.43;76.08
11971;BME280;6045;42.682;23.294;2023-03-22T13:04:28;94453.59;;;12.41;75.82
11971;BME280;6045;42.682;23.294;2023-03-22T13:07:08;94462.28;;;12.48;76.05
11971;BME280;6045;42.682;23.294;2023-03-22T13:09:38;94456.59;;;12.44;76.17
11971;BME280;6045;42.682;23.294;2023-03-22T13:12:25;94458.06;;;12.52;76.70
11971;BME280;6045;42.682;23.294;2023-03-22T13:14:55;94453.81;;;12.56;76.26
11971;BME280;6045;42.682;23.294;2023-03-22T13:17:41;94452.03;;;12.61;74.99
11971;BME280;6045;42.682;23.294;2023-03-22T13:20:25;94455.38;;;12.52;74.70